Time;durP1;ratioP1;P1;durP2;ratioP2;P2;SDS_P1;SDS_P2;PMS_P1;PMS_P2;Temp;Humidity;BMP_temperature;BMP_pressure;BME280_temperature;BME280_humidity;BME280_pressure;Samples;Min_cycle;Max_cycle;Signal;HPM_P1;HPM_P2
2023/02/15 10:30:39;;;;;;;;;;;;;;;;;;4986217;28;19977;-92
2023/02/15 10:33:10;;;;;;;;;;;;;;;;;;4978615;28;19918;-95
2023/02/15 10:35:44;;;;;;;;;;;;;;;;;;4976881;28;19921;-92
2023/02/15 10:38:10;;;;;;;;;;;;;;;;;;4977321;28;19921;-93
2023/02/15 10:40:41;;;;;;;;;;;;;;;;;;4976640;28;19914;-91
2023/02/15 10:43:16;;;;;;;;;;;;;;;;;;4975771;28;19921;-93
2023/02/15 10:45:53;;;;;;;;;;;;;;;;;;4976825;28;19914;-92
2023/02/15 10:48:18;;;;;;;;;;;;;;;;;;4975073;28;19918;-83
2023/02/15 10:50:55;;;;;;;;;;;;;;;;;;4973775;28;20004;-87
2023/02/15 10:53:23;;;;;;;;;;;;;;;;;;4975986;28;19913;-86
2023/02/15 10:55:48;;;;;;;;;;;;;;;;;;4976076;28;19925;-84
2023/02/15 10:58:14;;;;;;;;;;;;;;;;;;4976165;28;19914;-81
2023/02/15 11:00:59;;;;;;;;;;;;;;;;;;4976226;28;19914;-87
2023/02/15 11:03:24;;;;;;;;;;;;;;;;;;4975649;28;19914;-88
2023/02/15 11:06:10;;;;;;;;;;;;;;;;;;4975470;28;19921;-84
2023/02/15 11:08:39;;;;;;;;;;;;;;;;;;4975451;28;20016;-87
2023/02/15 11:11:06;;;;;;;;;;;;;;;;;;4975492;28;20029;-87
2023/02/15 11:13:34;;;;;;;;;;;;;;;;;;4974280;28;19914;-86
2023/02/15 11:16:03;;;;;;;;;;;;;;;;;;4975345;28;20279;-86
2023/02/15 11:18:33;;;;;;;;;;;;;;;;;;4975291;28;20363;-86
2023/02/15 11:21:19;;;;;;;;;;;;;;;;;;4974293;28;20364;-86
2023/02/15 11:23:46;;;;;;;;;;;;;;;;;;4975273;28;19972;-85
2023/02/15 11:26:14;;;;;;;;;;;;;;;;;;4975182;28;19914;-89
2023/02/15 11:28:46;;;;;;;;;;;;;;;;;;4974028;28;19914;-85
2023/02/15 11:31:22;;;;;;;;;;;;;;;;;;4975072;28;19918;-85
2023/02/15 11:33:51;;;;;;;;;;;;;;;;;;4975096;28;19921;-85
2023/02/15 11:36:25;;;;;;;;;;;;;;;;;;4978777;28;19914;-88
2023/02/15 11:38:56;;;;;;;;;;;;;;;;;;4974777;28;19984;-88
2023/02/15 11:41:27;;;;;;;;;;;;;;;;;;4976335;28;19968;-90
2023/02/15 11:43:55;;;;;;;;;;;;;;;;;;4976341;28;19918;-88
2023/02/15 11:46:21;;;;;;;;;;;;;;;;;;4975462;28;19953;-90
2023/02/15 11:48:47;;;;;;;;;;;;;;;;;;4975876;28;19921;-89
2023/02/15 11:51:15;;;;;;;;;;;;;;;;;;4979117;28;19914;-94
2023/02/15 11:53:43;;;;;;;;;;;;;;;;;;4977844;28;19914;-93
2023/02/15 11:56:16;;;;;;;;;;;;;;;;;;4977042;28;20305;-92
2023/02/15 11:58:47;;;;;;;;;;;;;;;;;;4976384;28;20020;-92
2023/02/15 12:01:12;;;;;;;;;;;;;;;;;;4979295;28;19914;-88
2023/02/15 12:03:40;;;;;;;;;;;;;;;;;;4978847;28;20296;-87
2023/02/15 12:06:11;;;;;;;;;;;;;;;;;;4978433;28;19918;-87
2023/02/15 12:08:41;;;;;;;;;;;;;;;;;;4979910;28;19942;-87
2023/02/15 12:11:12;;;;;;;;;;;;;;;;;;4979007;28;19918;-87
2023/02/15 12:13:53;;;;;;;;;;;;;;;;;;4977946;28;19972;-87
2023/02/15 12:16:18;;;;;;;;;;;;;;;;;;4977355;28;20012;-87
2023/02/15 12:18:46;;;;;;;;;;;;;;;;;;4978517;28;20009;-88
2023/02/15 12:21:23;;;;;;;;;;;;;;;;;;4979345;28;19968;-88
2023/02/15 12:23:51;;;;;;;;;;;;;;;;;;4987644;28;19914;-87
2023/02/15 12:26:24;;;;;;;;;;;;;;;;;;4979645;28;20418;-86
2023/02/15 12:28:51;;;;;;;;;;;;;;;;;;4977397;28;19914;-87
2023/02/15 12:31:22;;;;;;;;;;;;;;;;;;4977147;28;19921;-87
2023/02/15 12:33:49;;;;;;;;;;;;;;;;;;4979654;28;19945;-87
2023/02/15 12:36:18;;;;;;;;;;;;;;;;;;4981208;28;19968;-87
2023/02/15 12:38:43;;;;;;;;;;;;;;;;;;4979441;28;19918;-87
2023/02/15 12:41:25;;;;;;;;;;;;;;;;;;4978340;28;19918;-87
2023/02/15 12:44:07;;;;;;;;;;;;;;;;;;4978222;28;20368;-87
2023/02/15 12:46:32;;;;;;;;;;;;;;;;;;4978020;28;19918;-87
2023/02/15 17:09:55;;;;;;;;;;;;;;;;;;5274256;23;19922;-88
2023/02/15 17:17:31;;;;;;;;;;;;;;;;;;5118304;23;19922;-87
2023/02/15 17:19:56;;;;;;;;;;;;;;;;;;4977734;28;19921;-91
2023/02/15 17:22:24;;;;;;;;;;;;;;;;;;4977507;28;20356;-92
2023/02/15 17:24:51;;;;;;;;;;;;;;;;;;4978277;28;19914;-87
2023/02/15 17:50:30;;;;;;;;;;;;;;;;;;4955505;29;19938;-86
2023/02/15 17:52:56;;;;;;;;;;;;;;;;;;4957768;28;19914;-86
2023/02/15 17:55:34;;;;;;;;;;;;;;;;;;4958521;28;19938;-86
2023/02/15 17:58:00;;;;;;;;;;;;;;;;;;4956509;28;19974;-86
2023/02/15 18:11:37;;;;;;;;;;;;;;;;;;4957277;29;19926;-86
2023/02/15 18:14:06;;;;;;;;;;;;;;;;;;4958870;28;20284;-86
2023/02/15 18:16:33;;;;;;;;;;;;;;;;;;4957336;28;20289;-86
2023/02/15 18:18:59;;;;;;;;;;;;;;;;;;4957911;28;19965;-85
2023/02/15 18:21:24;;;;;;;;;;;;;;;;;;4958456;28;20277;-87
2023/02/15 18:23:50;;;;;;;;;;;;;;;;;;4958198;29;20281;-87
2023/02/15 18:26:17;;;;;;;;;;;;;;;;;;4957094;28;19915;-86
2023/02/15 18:28:42;;;;;;;;;;;;;;;;;;4956872;28;19914;-86
2023/02/15 18:31:09;;;;;;;;;;;;;;;;;;4956970;29;19914;-87
2023/02/15 18:33:35;;;;;;;;;;;;;;;;;;4957046;28;19954;-85
2023/02/15 18:36:01;;;;;;;;;;;;;;;;;;4955512;29;19950;-86
2023/02/15 18:38:27;;;;;;;;;;;;;;;;;;4955427;28;19921;-87
2023/02/15 18:40:52;;;;;;;;;;;;;;;;;;4956572;28;19914;-87
2023/02/15 18:43:17;;;;;;;;;;;;;;;;;;4956559;28;19961;-87
2023/02/15 18:45:43;;;;;;;;;;;;;;;;;;4956603;28;19914;-87
2023/02/15 18:48:08;;;;;;;;;;;;;;;;;;4956477;28;19918;-87
2023/02/15 18:50:44;;;;;;;;;;;;;;;;;;4957230;28;19964;-87
2023/02/15 18:53:19;;;;;;;;;;;;;;;;;;4956414;28;19978;-87
2023/02/15 18:55:45;;;;;;;;;;;;;;;;;;4956917;28;19921;-87
2023/02/15 18:58:15;;;;;;;;;;;;;;;;;;4955344;29;20280;-87
2023/02/15 19:00:42;;;;;;;;;;;;;;;;;;4955385;29;20373;-88
2023/02/15 19:03:10;;;;;;;;;;;;;;;;;;4956575;28;19921;-87
2023/02/15 19:05:35;;;;;;;;;;;;;;;;;;4956734;28;19914;-84
2023/02/15 19:08:01;;;;;;;;;;;;;;;;;;4956469;28;19921;-89
2023/02/15 19:10:30;;;;;;;;;;;;;;;;;;4955456;28;19918;-85
2023/02/15 19:12:56;;;;;;;;;;;;;;;;;;4956575;28;19914;-89
2023/02/15 19:15:23;;;;;;;;;;;;;;;;;;4956523;28;19978;-89
2023/02/15 19:17:48;;;;;;;;;;;;;;;;;;4955022;29;20018;-89
2023/02/15 19:20:15;;;;;;;;;;;;;;;;;;4955347;29;20352;-91
2023/02/15 19:22:40;;;;;;;;;;;;;;;;;;4955530;28;19914;-89
2023/02/15 19:25:06;;;;;;;;;;;;;;;;;;4955686;28;19914;-90
2023/02/15 19:27:35;;;;;;;;;;;;;;;;;;4956438;28;20352;-89
2023/02/15 19:30:02;;;;;;;;;;;;;;;;;;4954779;29;20357;-90
2023/02/15 19:32:29;;;;;;;;;;;;;;;;;;4954974;29;19921;-87
2023/02/15 19:34:55;;;;;;;;;;;;;;;;;;4956252;28;19914;-90
2023/02/15 19:37:25;;;;;;;;;;;;;;;;;;4954713;29;19937;-88
2023/02/15 19:39:53;;;;;;;;;;;;;;;;;;4957535;28;20416;-87
2023/02/15 19:42:22;;;;;;;;;;;;;;;;;;4958026;28;19922;-87
2023/02/15 19:44:47;;;;;;;;;;;;;;;;;;4954794;28;20334;-85
2023/02/15 19:47:13;;;;;;;;;;;;;;;;;;4954513;29;19977;-86
2023/02/15 19:49:38;;;;;;;;;;;;;;;;;;4956323;28;20372;-87
2023/02/15 19:52:04;;;;;;;;;;;;;;;;;;4955207;29;19915;-86
2023/02/15 19:54:32;;;;;;;;;;;;;;;;;;4955098;28;19919;-87
2023/02/15 19:56:57;;;;;;;;;;;;;;;;;;4954649;29;19922;-85
2023/02/15 19:59:31;;;;;;;;;;;;;;;;;;4954748;29;20320;-87
2023/02/15 20:01:56;;;;;;;;;;;;;;;;;;4956087;28;19915;-86
2023/02/15 20:04:25;;;;;;;19.65;11.60;;;;;;;;;;4955645;28;19917;-85
2023/02/15 20:06:53;;;;;;;15.93;10.65;;;;;;;;;;4954137;29;20378;-86
2023/02/15 20:09:25;;;;;;;17.85;11.70;;;;;;;;;;4954470;28;20023;-87
2023/02/15 20:11:54;;;;;;;20.33;11.63;;;;;;;;;;4954032;28;20030;-86
2023/02/15 20:14:20;;;;;;;17.02;11.57;;;;;;;;;;4954008;28;20031;-87
2023/02/15 20:16:55;;;;;;;20.98;12.25;;;;;;;;;;4953928;29;20410;-87
2023/02/15 20:19:24;;;;;;;;;;;;;;;;;;4956072;28;20030;-87
2023/02/15 20:21:53;;;;;;;;;;;;;;;;;;4955868;28;20016;-87
2023/02/15 20:24:19;;;;;;;;;;;;;;;;;;4959698;28;19941;-87
2023/02/15 20:26:45;;;;;;;;;;;;;;;;;;4958252;29;19922;-87
2023/02/15 20:29:14;;;;;;;;;;;;;;;;;;4959619;28;19922;-87
2023/02/15 20:31:44;;;;;;;;;;;;;;;;;;4957882;29;19922;-87
2023/02/15 20:34:10;;;;;;;;;;;;;;;;;;4958194;29;20428;-87
2023/02/15 20:36:35;;;;;;;;;;;;;;;;;;4958365;29;19919;-86
2023/02/15 20:39:08;;;;;;;;;;;;;;;;;;4959364;28;19984;-88
2023/02/15 20:41:38;;;;;;;;;;;;;;;;;;4957936;29;20009;-87
2023/02/15 20:44:17;;;;;;;;;;;;;;;;;;4958304;29;19919;-86
2023/02/15 20:46:43;;;;;;;;;;;;;;;;;;4958060;29;19925;-86
2023/02/15 20:49:08;;;;;;;;;;;;;;;;;;4958175;29;19926;-86
2023/02/15 20:51:34;;;;;;;;;;;;;;;;;;4958568;28;19948;-85
2023/02/15 20:53:59;;;;;;;;;;;;;;;;;;4958354;29;19926;-86
2023/02/15 20:56:24;;;;;;;;;;;;;;;;;;4956890;29;19925;-86
2023/02/15 20:58:50;;;;;;;;;;;;;;;;;;4957807;28;19926;-85
2023/02/15 21:01:18;;;;;;;;;;;;;;;;;;4957666;29;19918;-86
2023/02/15 21:03:44;;;;;;;;;;;;;;;;;;4957711;29;20008;-86
2023/02/15 21:06:12;;;;;;;;;;;;;;;;;;4958232;29;19946;-87
2023/02/15 21:08:41;;;;;;;;;;;;;;;;;;4957840;28;19954;-86
2023/02/15 21:11:20;;;;;;;;;;;;;;;;;;4959389;28;19918;-88
2023/02/15 21:13:46;;;;;;;;;;;;;;;;;;4958527;29;19918;-86
2023/02/15 21:16:14;;;;;;;;;;;;;;;;;;4959080;29;19953;-86
2023/02/15 21:18:42;;;;;;;;;;;;;;;;;;4958751;29;20381;-90
2023/02/15 21:21:10;;;;;;;;;;;;;;;;;;4959895;28;19919;-89
2023/02/15 21:23:40;;;;;;;;;;;;;;;;;;4958473;29;19919;-91
2023/02/15 21:26:06;;;;;;;;;;;;;;;;;;4958075;28;20429;-90
2023/02/15 21:28:31;;;;;;;;;;;;;;;;;;4946538;28;19961;-88
2023/02/15 21:30:58;;;;;;;;;;;;;;;;;;4960047;28;19949;-88
2023/02/15 21:33:24;;;;;;;;;;;;;;;;;;4957306;28;20408;-88
2023/02/15 21:35:54;;;;;;;;;;;;;;;;;;4949364;28;19969;-88
2023/02/15 21:38:24;;;;;;;;;;;;;;;;;;4940745;28;19922;-87
2023/02/15 21:40:49;;;;;;;;;;;;;;;;;;4938555;29;19923;-88
2023/02/15 21:49:01;;;;;;;;;;;;;;;;;;4939059;29;19973;-88
2023/02/15 21:54:12;;;;;;;;;;;;;;;;;;4938642;29;19930;-87
2023/02/15 21:56:37;;;;;;;;;;;;;;;;;;4937503;29;20022;-88
2023/02/15 21:59:08;;;;;;;;;;;;;;;;;;4937411;29;19950;-88
2023/02/15 22:01:33;;;;;;;;;;;;;;;;;;4948201;29;19918;-90
2023/02/15 22:03:59;;;;;;;;;;;;;;;;;;4957882;28;19922;-89
2023/02/15 22:06:24;;;;;;;;;;;;;;;;;;4957455;28;19918;-88
2023/02/15 22:08:49;;;;;;;;;;;;;;;;;;4956584;28;20013;-89
2023/02/15 22:11:16;;;;;;;;;;;;;;;;;;4957226;28;19933;-87
2023/02/15 22:13:50;;;;;;;;;;;;;;;;;;4956124;28;19918;-88
2023/02/15 22:16:19;;;;;;;;;;;;;;;;;;4955888;28;20309;-86
2023/02/15 22:18:44;;;;;;;;;;;;;;;;;;4956247;28;19923;-87
2023/02/15 22:21:15;;;;;;;;;;;;;;;;;;4955933;28;20058;-88
2023/02/15 22:23:41;;;;;;;;;;;;;;;;;;4957349;28;20400;-88
2023/02/15 22:26:11;;;;;;;;;;;;;;;;;;4957362;28;19918;-87
